logo
Search for airport 
image banner adimage banner adimage banner ad
image banner ad

LI-CH01 - Associazione Sportiva Volo Vasto

Located in Vasto, Italy

ICAO - , IATA -

Data provided by Airmate  

General information

Coordinates: N42°9'20" E14°41'57"
Elevation is 193 feet MSL.
 
View others Airports in Abruzzi

Operational data

Special qualification required
Current time UTC:
Current local time:
Weather at : LIBP - Pescara ( 52 km )
METAR: LIBP 171250Z AUTO 08010KT 9999 NCD 27/20 Q1016
TAF: TAF LIBP 171100Z 1712/1812 06010KT CAVOK BECMG 1717/1719 VRB05KT BECMG 1806/1808 08010KT
View NOTAMs / SUP AIP / TFR affecting this airport [VIEW]
Communications frequencies: [VIEW]

Runways:

RWY identifierQFULength (ft)Width (ft)SurfaceLDA (ft)
171148131GRASS
351148131GRASS

Airport contact information

Address: Vasto Italy

Satellite view of LI-CH01